createdAt,value
2016-04-18T00:00:39.740Z,87.49
2016-04-18T00:01:39.710Z,87.97
2016-04-18T00:02:39.682Z,88.16
2016-04-18T00:03:39.654Z,88.63
2016-04-18T00:04:39.625Z,88.63
2016-04-18T00:05:39.597Z,88.63
2016-04-18T00:06:39.568Z,88.54
2016-04-18T00:07:39.540Z,88.63
2016-04-18T00:08:39.512Z,88.54
2016-04-18T00:09:39.482Z,89.01
2016-04-18T00:10:39.454Z,88.92
2016-04-18T00:11:39.409Z,88.92
2016-04-18T00:12:39.397Z,88.63
2016-04-18T00:13:39.367Z,88.92
2016-04-18T00:14:39.339Z,89.01
2016-04-18T00:15:39.332Z,88.54
2016-04-18T00:16:39.346Z,88.82
2016-04-18T00:17:39.360Z,88.63
2016-04-18T00:18:39.375Z,88.63
2016-04-18T00:19:39.390Z,88.63
2016-04-18T00:20:39.391Z,88.92
2016-04-18T00:21:39.377Z,88.92
2016-04-18T00:22:39.364Z,88.73
2016-04-18T00:23:39.351Z,89.29
2016-04-18T00:24:39.339Z,89.29
2016-04-18T00:25:39.320Z,89.11
2016-04-18T00:26:39.297Z,89.58
2016-04-18T00:27:39.275Z,89.53
2016-04-18T00:28:39.252Z,90.01
2016-04-18T00:29:39.214Z,90.95
2016-04-18T00:30:39.204Z,90.29
2016-04-18T00:31:39.178Z,89.82
2016-04-18T00:32:39.135Z,90.48
2016-04-18T00:33:39.109Z,90.05
2016-04-18T00:34:39.082Z,90.05
2016-04-18T00:35:39.070Z,90.2
2016-04-18T00:36:39.027Z,90.2
2016-04-18T00:37:39.014Z,90.34
2016-04-18T00:38:38.972Z,90.15
2016-04-18T00:39:38.943Z,90.29
2016-04-18T00:40:38.915Z,90.2
2016-04-18T00:41:38.887Z,90.01
2016-04-18T00:42:38.860Z,90.01
2016-04-18T00:43:38.831Z,90.29
2016-04-18T00:44:38.803Z,90.48
2016-04-18T00:45:38.775Z,90.2
2016-04-18T00:46:38.746Z,90.67
2016-04-18T00:47:38.733Z,90.95
2016-04-18T00:48:38.704Z,91.81
2016-04-18T00:49:38.661Z,91.33
2016-04-18T00:50:38.633Z,91.62
2016-04-18T00:51:38.603Z,91.52
2016-04-18T00:52:38.591Z,91.24
2016-04-18T00:53:38.561Z,91.05
2016-04-18T00:54:38.518Z,90.95
2016-04-18T00:55:38.489Z,91.52
2016-04-18T00:56:38.461Z,91.43
2016-04-18T00:57:38.432Z,91.52
2016-04-18T00:58:38.404Z,91.05
2016-04-18T00:59:38.391Z,91.52
2016-04-18T01:00:38.378Z,92.19
2016-04-18T01:01:38.318Z,92
2016-04-18T01:02:38.290Z,91.62
2016-04-18T01:03:38.260Z,91.62
2016-04-18T01:04:38.232Z,91.33
2016-04-18T01:05:38.204Z,91.14
2016-04-18T01:06:38.176Z,91.62
2016-04-18T01:07:38.146Z,92.09
2016-04-18T01:08:38.134Z,92.38
2016-04-18T01:09:38.089Z,91.9
2016-04-18T01:10:38.061Z,91.9
2016-04-18T01:11:38.032Z,92
2016-04-18T01:12:38.004Z,91.43
2016-04-18T01:13:37.975Z,92.19
2016-04-18T01:14:37.931Z,91.62
2016-04-18T01:15:37.917Z,92
2016-04-18T01:16:37.873Z,92.38
2016-04-18T01:17:37.845Z,91.81
2016-04-18T01:18:37.832Z,92.28
2016-04-18T01:19:37.804Z,92.47
2016-04-18T01:20:37.775Z,92.28
2016-04-18T01:21:37.746Z,92.09
2016-04-18T01:22:37.703Z,92.19
2016-04-18T01:23:37.689Z,92.09
2016-04-18T01:24:37.644Z,92.38
2016-04-18T01:25:37.617Z,92.85
2016-04-18T01:26:37.589Z,92.85
2016-04-18T01:27:37.559Z,92.19
2016-04-18T01:28:37.531Z,92.57
2016-04-18T01:29:37.502Z,91.9
2016-04-18T01:30:37.474Z,92.28
2016-04-18T01:31:37.446Z,92.28
2016-04-18T01:32:37.416Z,92.09
2016-04-18T01:33:37.404Z,92.19
2016-04-18T01:34:37.360Z,92.19
2016-04-18T01:35:37.332Z,92.09
2016-04-18T01:36:37.302Z,91.9
2016-04-18T01:37:37.274Z,92.09
2016-04-18T01:38:37.245Z,92.14
2016-04-18T01:39:37.217Z,92.05
2016-04-18T01:40:37.187Z,92.33
2016-04-18T01:41:37.145Z,92.33
2016-04-18T01:42:37.131Z,92.33
2016-04-18T01:43:37.087Z,92.24
2016-04-18T01:44:37.074Z,92.33
2016-04-18T01:45:37.031Z,92.43
2016-04-18T01:46:37.017Z,92.14
2016-04-18T01:47:36.973Z,92.52
2016-04-18T01:48:36.944Z,92.61
2016-04-18T01:49:36.916Z,92.52
2016-04-18T01:50:36.886Z,92.61
2016-04-18T01:51:36.874Z,92.52
2016-04-18T01:52:36.830Z,92.99
2016-04-18T01:53:36.802Z,93.46
2016-04-18T01:54:36.772Z,93.56
2016-04-18T01:55:36.760Z,93.37
2016-04-18T01:56:36.700Z,93.46
2016-04-18T01:57:36.688Z,93.37
2016-04-18T01:58:36.658Z,94.13
2016-04-18T01:59:36.630Z,93.56
2016-04-18T02:00:36.585Z,93.37
2016-04-18T02:01:36.573Z,93.56
2016-04-18T02:02:36.529Z,93.08
2016-04-18T02:03:36.515Z,94.13
2016-04-18T02:04:36.472Z,94.23
2016-04-18T02:05:36.443Z,94.6
2016-04-18T02:06:36.414Z,94.6
2016-04-18T02:07:36.385Z,94.7
2016-04-18T02:08:36.358Z,94.89
2016-04-18T02:09:36.329Z,95.45
2016-04-18T02:10:36.300Z,95.07
2016-04-18T02:11:36.271Z,95.17
2016-04-18T02:12:36.243Z,95.07
2016-04-18T02:13:36.215Z,94.89
2016-04-18T02:14:36.186Z,94.51
2016-04-18T02:15:36.157Z,94.6
2016-04-18T02:16:36.114Z,94.7
2016-04-18T02:17:36.100Z,94.42
2016-04-18T02:18:36.072Z,94.89
2016-04-18T02:19:36.043Z,94.98
2016-04-18T02:20:36.000Z,94.42
2016-04-18T02:21:35.986Z,94.42
2016-04-18T02:22:35.958Z,94.6
2016-04-18T02:23:35.913Z,93.94
2016-04-18T02:24:35.869Z,94.13
2016-04-18T02:25:35.855Z,93.94
2016-04-18T02:26:35.828Z,94.13
2016-04-18T02:27:35.783Z,93.94
2016-04-18T02:28:35.771Z,93.75
2016-04-18T02:29:35.742Z,94.04
2016-04-18T02:30:35.697Z,94.6
2016-04-18T02:31:35.669Z,95.07
2016-04-18T02:32:35.641Z,95.07
2016-04-18T02:33:35.612Z,94.98
2016-04-18T02:34:35.583Z,94.89
2016-04-18T02:35:35.555Z,94.6
2016-04-18T02:36:35.526Z,94.42
2016-04-18T02:37:35.498Z,94.7
2016-04-18T02:38:35.468Z,94.6
2016-04-18T02:39:35.441Z,94.56
2016-04-18T02:40:35.413Z,94.37
2016-04-18T02:41:35.368Z,94.65
2016-04-18T02:42:35.355Z,95.31
2016-04-18T02:43:35.326Z,95.12
2016-04-18T02:44:35.281Z,95.21
2016-04-18T02:45:35.253Z,95.31
2016-04-18T02:46:35.225Z,95.5
2016-04-18T02:47:35.197Z,95.36
2016-04-18T02:48:35.167Z,95.12
2016-04-18T02:49:35.139Z,95.5
2016-04-18T02:50:34.939Z,95.88
2016-04-18T02:51:35.067Z,96.73
2016-04-18T02:52:35.053Z,96.73
2016-04-18T02:53:35.025Z,96.54
2016-04-18T02:54:34.997Z,97.06
2016-04-18T02:55:34.969Z,96.73
2016-04-18T02:56:34.924Z,96.45
2016-04-18T02:57:34.911Z,96.73
2016-04-18T02:58:34.882Z,95.88
2016-04-18T02:59:34.839Z,95.59
2016-04-18T03:00:34.809Z,95.31
2016-04-18T03:01:34.781Z,95.78
2016-04-18T03:02:34.752Z,95.5
2016-04-18T03:03:34.724Z,95.21
2016-04-18T03:04:34.695Z,95.5
2016-04-18T03:05:34.666Z,95.21
2016-04-18T03:06:34.623Z,95.78
2016-04-18T03:07:34.594Z,96.73
2016-04-18T03:08:34.566Z,97.49
2016-04-18T03:09:34.538Z,97.2
2016-04-18T03:10:34.509Z,97.39
2016-04-18T03:11:34.480Z,97.2
2016-04-18T03:12:34.451Z,97.39
2016-04-18T03:13:34.423Z,96.83
2016-04-18T03:14:34.395Z,96.45
2016-04-18T03:15:34.194Z,96.64
2016-04-18T03:16:34.321Z,96.45
2016-04-18T03:17:34.293Z,96.83
2016-04-18T03:18:34.265Z,97.02
2016-04-18T03:19:34.236Z,96.73
2016-04-18T03:20:34.207Z,96.83
2016-04-18T03:21:34.178Z,96.64
2016-04-18T03:22:34.166Z,97.39
2016-04-18T03:23:34.122Z,97.2
2016-04-18T03:24:34.187Z,97.11
2016-04-18T03:25:34.049Z,97.2
2016-04-18T03:26:34.020Z,97.02
2016-04-18T03:27:34.007Z,97.2
2016-04-18T03:28:33.963Z,97.49
2016-04-18T03:29:33.934Z,97.3
2016-04-18T03:30:33.905Z,97.3
2016-04-18T03:31:33.877Z,97.02
2016-04-18T03:32:33.849Z,96.64
2016-04-18T03:33:33.821Z,96.64
2016-04-18T03:34:33.776Z,96.16
2016-04-18T03:35:33.747Z,96.16
2016-04-18T03:36:33.734Z,95.97
2016-04-18T03:37:33.706Z,96.35
2016-04-18T03:38:33.662Z,96.54
2016-04-18T03:39:33.758Z,96.45
2016-04-18T03:40:33.605Z,96.83
2016-04-18T03:41:33.592Z,96.64
2016-04-18T03:42:33.548Z,97.39
2016-04-18T03:43:33.504Z,97.11
2016-04-18T03:44:33.490Z,97.11
2016-04-18T03:45:33.462Z,96.92
2016-04-18T03:46:33.433Z,97.58
2016-04-18T03:47:33.390Z,97.11
2016-04-18T03:48:33.361Z,97.2
2016-04-18T03:49:33.364Z,97.02
2016-04-18T03:50:33.303Z,97.77
2016-04-18T03:51:33.275Z,98.06
2016-04-18T03:52:33.231Z,98.63
2016-04-18T03:53:33.217Z,99.19
2016-04-18T03:54:33.220Z,99.1
2016-04-18T03:55:33.144Z,99.1
2016-04-18T03:56:33.116Z,99.19
2016-04-18T03:57:33.088Z,99.19
2016-04-18T03:58:33.075Z,98.91
2016-04-18T03:59:33.031Z,99.1
2016-04-18T04:00:33.002Z,98.82
2016-04-18T04:01:32.958Z,99.1
2016-04-18T04:02:32.930Z,99.19
2016-04-18T04:03:32.902Z,98.63
2016-04-18T04:04:32.872Z,98.44
2016-04-18T04:05:32.844Z,98.53
2016-04-18T04:06:32.815Z,99.1
2016-04-18T04:07:32.771Z,98.72
2016-04-18T04:08:32.743Z,98.63
2016-04-18T04:09:32.745Z,98.44
2016-04-18T04:10:32.685Z,97.96
2016-04-18T04:11:32.673Z,98.34
2016-04-18T04:12:32.629Z,97.39
2016-04-18T04:13:32.599Z,97.77
2016-04-18T04:14:32.571Z,97.68
2016-04-18T04:15:32.543Z,97.58
2016-04-18T04:16:32.498Z,97.77
2016-04-18T04:17:32.470Z,97.77
2016-04-18T04:18:32.442Z,97.3
2016-04-18T04:19:32.412Z,97.77
2016-04-18T04:20:32.384Z,97.96
2016-04-18T04:21:32.355Z,97.3
2016-04-18T04:22:32.328Z,98.34
2016-04-18T04:23:32.283Z,99.01
2016-04-18T04:24:32.348Z,98.44
2016-04-18T04:25:32.226Z,98.44
2016-04-18T04:26:32.197Z,98.44
2016-04-18T04:27:32.169Z,99.1
2016-04-18T04:28:32.139Z,98.91
2016-04-18T04:29:32.112Z,98.82
2016-04-18T04:30:32.083Z,98.63
2016-04-18T04:31:32.039Z,98.53
2016-04-18T04:32:32.010Z,99.1
2016-04-18T04:33:31.997Z,99.19
2016-04-18T04:34:31.953Z,98.72
2016-04-18T04:35:31.924Z,98.72
2016-04-18T04:36:31.896Z,99.01
2016-04-18T04:37:31.867Z,98.91
2016-04-18T04:38:31.838Z,98.91
2016-04-18T04:39:31.685Z,98.82
2016-04-18T04:40:31.766Z,98.91
2016-04-18T04:41:31.738Z,98.91
2016-04-18T04:42:31.724Z,98.82
2016-04-18T04:43:31.696Z,99.01
2016-04-18T04:44:31.651Z,98.63
2016-04-18T04:45:31.623Z,98.91
2016-04-18T04:46:31.578Z,99.1
2016-04-18T04:47:31.564Z,98.82
2016-04-18T04:48:31.521Z,99.1
2016-04-18T04:49:31.492Z,98.91
2016-04-18T04:50:31.480Z,98.91
2016-04-18T04:51:31.436Z,98.63
2016-04-18T04:52:31.407Z,98.63
2016-04-18T04:53:31.378Z,98.82
2016-04-18T04:54:31.381Z,99.19
2016-04-18T04:55:31.305Z,98.63
2016-04-18T04:56:31.277Z,98.53
2016-04-18T04:57:31.249Z,98.25
2016-04-18T04:58:31.219Z,98.15
2016-04-18T04:59:31.191Z,98.25
2016-04-18T05:00:31.163Z,98.63
2016-04-18T05:01:31.134Z,98.25
2016-04-18T05:02:31.105Z,98.53
2016-04-18T05:03:31.061Z,98.82
2016-04-18T05:04:31.048Z,98.3
2016-04-18T05:05:31.004Z,98.77
2016-04-18T05:06:30.976Z,98.3
2016-04-18T05:07:30.791Z,98.72
2016-04-18T05:08:30.903Z,98.96
2016-04-18T05:09:30.953Z,98.2
2016-04-18T05:10:30.845Z,98.11
2016-04-18T05:11:30.817Z,98.3
2016-04-18T05:12:30.804Z,98.39
2016-04-18T05:13:30.759Z,98.49
2016-04-18T05:14:30.731Z,98.58
2016-04-18T05:15:30.703Z,98.49
2016-04-18T05:16:30.675Z,98.68
2016-04-18T05:17:30.645Z,98.86
2016-04-18T05:18:30.602Z,98.68
2016-04-18T05:19:30.572Z,98.2
2016-04-18T05:20:30.560Z,98.2
2016-04-18T05:21:30.360Z,98.2
2016-04-18T05:22:30.488Z,98.2
2016-04-18T05:23:30.458Z,98.49
2016-04-18T05:24:30.430Z,98.2
2016-04-18T05:25:30.511Z,98.2
2016-04-18T05:26:30.357Z,98.39
2016-04-18T05:27:30.329Z,97.82
2016-04-18T05:28:30.315Z,97.54
2016-04-18T05:29:30.287Z,97.54
2016-04-18T05:30:30.264Z,97.92
2016-04-18T05:31:30.221Z,97.73
2016-04-18T05:32:30.177Z,97.82
2016-04-18T05:33:30.163Z,97.63
2016-04-18T05:34:30.119Z,97.87
2016-04-18T05:35:30.090Z,98.06
2016-04-18T05:36:30.062Z,97.68
2016-04-18T05:37:30.033Z,97.11
2016-04-18T05:38:30.005Z,97.78
2016-04-18T05:39:29.961Z,97.11
2016-04-18T05:40:29.948Z,97.21
2016-04-18T05:41:29.904Z,97.4
2016-04-18T05:42:29.906Z,97.3
2016-04-18T05:43:29.862Z,97.4
2016-04-18T05:44:29.833Z,96.92
2016-04-18T05:45:29.789Z,97.02
2016-04-18T05:46:29.761Z,96.45
2016-04-18T05:47:29.731Z,96.73
2016-04-18T05:48:29.704Z,96.45
2016-04-18T05:49:29.675Z,96.07
2016-04-18T05:50:29.647Z,95.98
2016-04-18T05:51:29.617Z,96.07
2016-04-18T05:52:29.589Z,95.88
2016-04-18T05:53:29.545Z,95.69
2016-04-18T05:54:29.533Z,95.69
2016-04-18T05:55:29.332Z,95.74
2016-04-18T05:56:29.476Z,95.93
2016-04-18T05:57:29.431Z,95.36
2016-04-18T05:58:29.403Z,95.36
2016-04-18T05:59:29.374Z,95.55
2016-04-18T06:00:29.345Z,95.65
2016-04-18T06:01:29.316Z,94.79
2016-04-18T06:02:29.288Z,94.7
2016-04-18T06:03:29.260Z,95.07
2016-04-18T06:04:29.216Z,94.79
2016-04-18T06:05:29.188Z,94.51
2016-04-18T06:06:29.174Z,95.07
2016-04-18T06:07:29.146Z,94.6
2016-04-18T06:08:29.116Z,94.79
2016-04-18T06:09:29.088Z,94.7
2016-04-18T06:10:29.043Z,94.23
2016-04-18T06:11:29.031Z,94.23
2016-04-18T06:12:28.987Z,93.8
2016-04-18T06:13:28.959Z,93.61
2016-04-18T06:14:28.930Z,93.51
2016-04-18T06:15:28.901Z,93.51
2016-04-18T06:16:28.873Z,92.66
2016-04-18T06:17:28.844Z,92.57
2016-04-18T06:18:28.816Z,92.76
2016-04-18T06:19:28.787Z,92.47
2016-04-18T06:20:28.759Z,93.04
2016-04-18T06:21:28.745Z,92.66
2016-04-18T06:22:28.701Z,92.47
2016-04-18T06:23:28.688Z,92.28
2016-04-18T06:24:28.644Z,92.38
2016-04-18T06:25:28.631Z,92.28
2016-04-18T06:26:28.603Z,92.09
2016-04-18T06:27:28.559Z,91.94
2016-04-18T06:28:28.530Z,91.9
2016-04-18T06:29:28.502Z,91.38
2016-04-18T06:30:28.473Z,91.75
2016-04-18T06:31:28.444Z,92.04
2016-04-18T06:32:28.416Z,91.94
2016-04-18T06:33:28.387Z,91.09
2016-04-18T06:34:28.359Z,91.47
2016-04-18T06:35:28.330Z,91
2016-04-18T06:36:28.302Z,90.81
2016-04-18T06:37:28.289Z,90.33
2016-04-18T06:38:28.244Z,90.05
2016-04-18T06:39:28.215Z,90.33
2016-04-18T06:40:28.188Z,90.33
2016-04-18T06:41:28.159Z,90
2016-04-18T06:42:28.146Z,90.66
2016-04-18T06:43:28.102Z,90.19
2016-04-18T06:44:28.073Z,89.9
2016-04-18T06:45:28.060Z,89.62
2016-04-18T06:46:28.015Z,89.24
2016-04-18T06:47:27.987Z,89.43
2016-04-18T06:48:27.974Z,89.05
2016-04-18T06:49:27.931Z,89.24
2016-04-18T06:50:27.902Z,88.29
2016-04-18T06:51:27.873Z,87.91
2016-04-18T06:52:27.860Z,87.82
2016-04-18T06:53:27.816Z,87.82
2016-04-18T06:54:27.787Z,88.1
2016-04-18T06:55:27.775Z,88.01
2016-04-18T06:56:27.746Z,88.01
2016-04-18T06:57:27.717Z,87.95
2016-04-18T06:58:27.689Z,87.1
2016-04-18T06:59:27.660Z,87.29
2016-04-18T07:00:27.631Z,87.01
2016-04-18T07:01:27.618Z,86.24
2016-04-18T07:02:27.574Z,85.96
2016-04-18T07:03:27.546Z,85.39
2016-04-18T07:04:27.532Z,85.3
2016-04-18T07:05:27.488Z,85.11
2016-04-18T07:06:27.460Z,84.63
2016-04-18T07:07:27.447Z,84.25
2016-04-18T07:08:27.419Z,83.97
2016-04-18T07:09:27.406Z,84.91
2016-04-18T07:10:27.377Z,85.01
2016-04-18T07:11:27.333Z,84.86
2016-04-18T07:12:27.304Z,83.49
2016-04-18T07:13:27.276Z,84.01
2016-04-18T07:14:27.247Z,83.62
2016-04-18T07:15:27.219Z,83.15
2016-04-18T07:16:27.190Z,82.77
2016-04-18T07:17:27.162Z,83.25
2016-04-18T07:18:27.148Z,82.68
2016-04-18T07:19:27.120Z,81.16
2016-04-18T07:20:27.091Z,81.63
2016-04-18T07:21:27.055Z,81.06
2016-04-18T07:22:27.025Z,81.06
2016-04-18T07:23:28.872Z,80.87
2016-04-18T07:24:27.781Z,80.96
2016-04-18T07:25:27.581Z,80.3
2016-04-18T07:26:27.489Z,79.83
2016-04-18T07:27:29.133Z,80.77
2016-04-18T07:28:29.214Z,80.49
2016-04-18T07:29:28.326Z,80.4
2016-04-18T07:30:29.344Z,79.63
2016-04-18T07:31:28.816Z,78.88
2016-04-18T07:32:29.380Z,79.06
2016-04-18T07:33:28.993Z,79.49
2016-04-18T07:34:28.168Z,78.06
2016-04-18T07:35:27.545Z,77.77
2016-04-18T07:36:28.641Z,77.97
2016-04-18T07:37:29.378Z,76.63
2016-04-18T07:38:29.303Z,76.16
2016-04-18T07:39:27.524Z,76.25
2016-04-18T07:40:29.261Z,75.11
2016-04-18T07:41:26.529Z,75.3
2016-04-18T07:42:26.501Z,73.91
2016-04-18T07:43:26.472Z,72.58
2016-04-18T07:44:26.459Z,72.2
2016-04-18T07:45:26.431Z,71.19
2016-04-18T07:46:26.402Z,68.05
2016-04-18T07:47:26.374Z,65.61
2016-04-18T07:48:26.345Z,61.1
2016-04-18T07:49:26.333Z,56.89
2016-04-18T07:50:26.304Z,53.86
2016-04-18T07:51:26.276Z,51.89
2016-04-18T07:52:26.263Z,48.78
2016-04-18T07:53:26.250Z,46.72
2016-04-18T07:54:26.221Z,45.96
2016-04-18T07:55:26.192Z,45.86
2016-04-18T07:56:26.179Z,44.16
2016-04-18T07:57:26.151Z,43.3
2016-04-18T07:58:26.138Z,42.84
2016-04-18T07:59:26.110Z,42.19
2016-04-18T08:00:26.096Z,41.35
2016-04-18T08:01:26.068Z,40.39
2016-04-18T08:02:26.054Z,38.59
2016-04-18T08:03:26.043Z,38.37
2016-04-18T08:04:26.045Z,37.32
2016-04-18T08:05:26.001Z,37.41
2016-04-18T08:06:25.987Z,37.43
2016-04-18T08:07:25.974Z,37.13
2016-04-18T08:08:25.962Z,36.09
2016-04-18T08:09:25.934Z,35.22
2016-04-18T08:10:25.920Z,34.76
2016-04-18T08:11:25.907Z,33.9
2016-04-18T08:12:25.909Z,33.03
2016-04-18T08:13:25.897Z,33.44
2016-04-18T08:14:25.868Z,33.9
2016-04-18T08:15:25.855Z,34.2
2016-04-18T08:16:25.842Z,33.15
2016-04-18T08:17:25.830Z,32.2
2016-04-18T08:18:25.817Z,32.49
2016-04-18T08:19:25.803Z,32.55
2016-04-18T08:20:25.792Z,32.28
2016-04-18T08:21:25.778Z,32.26
2016-04-18T08:22:25.765Z,33.05
2016-04-18T08:23:25.737Z,32.49
2016-04-18T08:24:25.725Z,33.34
2016-04-18T08:25:25.727Z,32.75
2016-04-18T08:26:25.697Z,32.76
2016-04-18T08:27:25.685Z,32.57
2016-04-18T08:28:25.671Z,31.8
2016-04-18T08:29:25.674Z,31.62
2016-04-18T08:30:25.646Z,31.82
2016-04-18T08:31:25.649Z,32.12
2016-04-18T08:32:25.621Z,32.95
2016-04-18T08:33:25.608Z,33.61
2016-04-18T08:34:25.594Z,33.32
2016-04-18T08:35:25.596Z,33.88
2016-04-18T08:36:25.585Z,34.25
2016-04-18T08:37:25.587Z,34.42
2016-04-18T08:38:25.543Z,35.4
2016-04-18T08:39:25.546Z,37.68
2016-04-18T08:40:25.517Z,37.57
2016-04-18T08:41:25.520Z,37.85
2016-04-18T08:42:25.490Z,40.41
2016-04-18T08:43:25.478Z,40.67
2016-04-18T08:44:25.465Z,43.14
2016-04-18T08:45:25.437Z,44.07
2016-04-18T08:46:25.423Z,43.21
2016-04-18T08:47:25.395Z,44.17
2016-04-18T08:48:25.381Z,44.81
2016-04-18T08:49:25.369Z,44.98
2016-04-18T08:50:25.356Z,45.75
2016-04-18T08:51:25.328Z,46.39
2016-04-18T08:52:25.315Z,46.77
2016-04-18T08:53:25.286Z,47.06
2016-04-18T08:54:25.273Z,46.87
2016-04-18T08:55:25.433Z,47.8
2016-04-18T08:56:25.231Z,47.89
2016-04-18T08:57:25.202Z,48.28
2016-04-18T08:58:25.190Z,47.99
2016-04-18T08:59:25.161Z,47.89
2016-04-18T09:00:25.148Z,49.02
2016-04-18T09:01:24.964Z,49.21
2016-04-18T09:02:25.091Z,50.07
2016-04-18T09:03:25.079Z,51.68
2016-04-18T09:04:25.049Z,50.35
2016-04-18T09:05:25.022Z,50.99
2016-04-18T09:06:25.008Z,52.04
2016-04-18T09:07:24.996Z,52.23
2016-04-18T09:08:24.968Z,53.19
2016-04-18T09:09:24.955Z,52.8
2016-04-18T09:10:24.862Z,52.42
2016-04-18T09:11:24.912Z,51.66
2016-04-18T09:12:24.885Z,51.76
2016-04-18T09:13:24.855Z,53.16
2016-04-18T09:14:24.827Z,53.83
2016-04-18T09:15:24.798Z,53.44
2016-04-18T09:16:24.785Z,53.76
2016-04-18T09:17:24.756Z,53.85
2016-04-18T09:18:24.744Z,53.66
2016-04-18T09:19:24.715Z,52.23
2016-04-18T09:20:24.687Z,53.38
2016-04-18T09:21:24.698Z,53.09
2016-04-18T09:22:24.743Z,53.19
2016-04-18T09:23:24.757Z,53.19
2016-04-18T09:24:24.755Z,51.66
2016-04-18T09:25:24.783Z,50.52
2016-04-18T09:26:24.765Z,50.71
2016-04-18T09:27:24.752Z,50.8
2016-04-18T09:28:24.755Z,51.56
2016-04-18T09:29:24.741Z,52.9
2016-04-18T09:30:24.728Z,52.04
2016-04-18T09:31:24.725Z,52.33
2016-04-18T09:32:24.717Z,52.04
2016-04-18T09:33:24.677Z,53.47
2016-04-18T09:34:24.670Z,52.8
2016-04-18T09:35:24.647Z,53.19
2016-04-18T09:36:24.622Z,53
2016-04-18T09:37:24.611Z,52.9
2016-04-18T09:38:24.585Z,54.04
2016-04-18T09:39:24.557Z,53.47
2016-04-18T09:40:24.656Z,52.9
2016-04-18T09:41:24.519Z,52.9
2016-04-18T09:42:24.492Z,53.38
2016-04-18T09:43:24.464Z,52.83
2016-04-18T09:44:24.451Z,53.76
2016-04-18T09:45:24.424Z,52.64
2016-04-18T09:46:24.396Z,53.59
2016-04-18T09:47:24.383Z,52.83
2016-04-18T09:48:24.355Z,52.92
2016-04-18T09:49:24.325Z,51.5
2016-04-18T09:50:24.312Z,51.31
2016-04-18T09:51:24.284Z,50.26
2016-04-18T09:52:24.255Z,48.92
2016-04-18T09:53:24.257Z,46.73
2016-04-18T09:54:24.213Z,47.02
2016-04-18T09:55:24.326Z,46.92
2016-04-18T09:56:24.173Z,47.97
2016-04-18T09:57:24.144Z,48.92
2016-04-18T09:58:24.131Z,48.63
2016-04-18T10:01:53.248Z,49.68
2016-04-18T10:02:53.235Z,47.87
2016-04-18T10:03:53.191Z,48.25
2016-04-18T10:04:53.178Z,48.16
2016-04-18T10:08:19.189Z,45.68
2016-04-18T10:09:19.223Z,46.08
2016-04-18T10:10:19.148Z,46.63
2016-04-18T10:11:19.119Z,47.13
2016-04-18T10:12:19.106Z,47.13
2016-04-18T10:13:19.081Z,44.94
2016-04-18T10:14:19.052Z,44.17
2016-04-18T10:15:19.039Z,45.22
2016-04-18T10:16:19.011Z,44.17
2016-04-18T10:17:18.998Z,45.03
2016-04-18T10:18:18.969Z,43.79
2016-04-18T10:19:18.940Z,43.89
2016-04-18T10:20:18.927Z,44.37
2016-04-18T10:21:18.899Z,42.74
2016-04-18T10:22:18.871Z,42.84
2016-04-18T10:23:18.841Z,44.34
2016-04-18T10:24:18.829Z,45.01
2016-04-18T10:25:18.816Z,44.08
2016-04-18T10:26:18.834Z,44.92
2016-04-18T10:27:18.759Z,44.94
2016-04-18T10:28:19.730Z,43.7
2016-04-18T10:29:18.702Z,45.13
2016-04-18T10:30:18.688Z,45.89
2016-04-18T10:31:18.660Z,46.37
2016-04-18T10:32:18.647Z,47.32
2016-04-18T10:33:18.618Z,45.7
2016-04-18T10:34:18.590Z,47.03
2016-04-18T10:35:18.562Z,46.08
2016-04-18T10:36:18.549Z,44.27
2016-04-18T10:37:18.520Z,44.27
2016-04-18T10:38:18.492Z,43.41
2016-04-18T10:39:18.478Z,42.55
2016-04-18T10:40:18.451Z,43.6
2016-04-18T10:41:18.436Z,43.13
2016-04-18T10:42:18.408Z,43.51
2016-04-18T10:43:18.380Z,42.96
2016-04-18T10:44:18.367Z,42.77
2016-04-18T10:45:18.338Z,43.15
2016-04-18T10:46:18.326Z,44.01
2016-04-18T10:47:18.297Z,44.1
2016-04-18T10:48:18.269Z,45.15
2016-04-18T10:49:18.256Z,45.34
2016-04-18T10:50:18.243Z,46.13
2016-04-18T10:51:18.198Z,45.27
2016-04-18T10:52:18.185Z,43.86
2016-04-18T10:53:18.844Z,41.55
2016-04-18T10:54:18.144Z,41.64
2016-04-18T10:55:18.115Z,40.7
2016-04-18T10:56:19.727Z,41.28
2016-04-18T10:57:18.074Z,41.75
2016-04-18T10:58:18.060Z,41.75
2016-04-18T10:59:18.033Z,41.01
2016-04-18T11:00:18.019Z,41.2
2016-04-18T11:01:17.991Z,40.44
2016-04-18T11:02:17.978Z,39.77
2016-04-18T11:03:17.949Z,39.27
2016-04-18T11:04:17.936Z,40.06
2016-04-18T11:05:17.892Z,38.22
2016-04-18T11:06:17.895Z,37.65
2016-04-18T11:07:17.866Z,38.68
2016-04-18T11:08:17.837Z,38.68
2016-04-18T11:09:17.809Z,38.66
2016-04-18T11:10:17.796Z,38.85
2016-04-18T11:11:17.767Z,39.92
2016-04-18T11:12:17.755Z,40.49
2016-04-18T11:13:17.726Z,40.95
2016-04-18T11:14:17.713Z,40.66
2016-04-18T11:15:17.685Z,41.14
2016-04-18T11:16:17.672Z,41.43
2016-04-18T11:17:17.644Z,41.14
2016-04-18T11:18:17.630Z,41.71
2016-04-18T11:19:17.602Z,40.86
2016-04-18T11:20:17.573Z,41.43
2016-04-18T11:21:17.560Z,40.57
2016-04-18T11:22:17.533Z,40.37
2016-04-18T11:23:17.503Z,39.52
2016-04-18T11:24:17.491Z,38.95
2016-04-18T11:25:17.477Z,39.23
2016-04-18T11:26:17.449Z,37.23
2016-04-18T11:27:17.435Z,36.66
2016-04-18T11:28:17.408Z,37.34
2016-04-18T11:29:17.394Z,37.53
2016-04-18T11:30:17.365Z,37.34
2016-04-18T11:31:17.352Z,37.92
2016-04-18T11:32:17.324Z,40.23
2016-04-18T11:33:17.296Z,40.03
2016-04-18T11:34:17.283Z,37.84
2016-04-18T11:35:17.254Z,37.85
2016-04-18T11:36:17.225Z,37.57
2016-04-18T11:37:17.228Z,38.71
2016-04-18T11:38:17.200Z,38.24
2016-04-18T11:39:17.171Z,40.34
2016-04-18T11:40:17.143Z,39.31
2016-04-18T11:41:17.129Z,36.73
2016-04-18T11:42:17.117Z,37.21
2016-04-18T11:43:17.088Z,37.4
2016-04-18T11:44:17.059Z,38.24
2016-04-18T11:45:17.062Z,38.81
2016-04-18T11:46:17.034Z,38.14
2016-04-18T11:47:17.005Z,38.81
2016-04-18T11:48:16.992Z,38.71
2016-04-18T11:49:16.995Z,38.24
2016-04-18T11:50:16.950Z,37.66
2016-04-18T11:51:16.922Z,38.24
2016-04-18T11:52:16.909Z,37.95
2016-04-18T11:53:16.881Z,37.85
2016-04-18T11:54:16.869Z,37.57
2016-04-18T11:55:16.855Z,38.34
2016-04-18T11:56:16.827Z,40.34
2016-04-18T11:57:16.813Z,41.39
2016-04-18T11:58:16.785Z,40.15
2016-04-18T11:59:16.756Z,40.15
2016-04-18T12:00:16.743Z,40.72
2016-04-18T12:01:16.730Z,40.44
2016-04-18T12:02:16.702Z,40.44
2016-04-18T12:03:16.673Z,40.06
2016-04-18T12:04:16.661Z,39.86
2016-04-18T12:05:16.647Z,39.29
2016-04-18T12:06:16.634Z,39.29
2016-04-18T12:07:16.590Z,40.25
2016-04-18T12:08:16.577Z,40.15
2016-04-18T12:09:16.565Z,40.63
2016-04-18T12:10:16.551Z,40.53
2016-04-18T12:11:16.523Z,39.29
2016-04-18T12:12:16.510Z,39.67
2016-04-18T12:13:16.481Z,40.34
2016-04-18T12:14:16.453Z,40.34
2016-04-18T12:15:16.439Z,40.08
2016-04-18T12:16:16.411Z,40.26
2016-04-18T12:17:16.445Z,40.46
2016-04-18T12:18:16.244Z,40.36
2016-04-18T12:19:16.372Z,40.75
2016-04-18T12:20:16.344Z,40.65
2016-04-18T12:21:16.347Z,40.53
2016-04-18T12:22:16.286Z,40.82
2016-04-18T12:23:16.275Z,39.96
2016-04-18T12:24:16.260Z,39.31
2016-04-18T12:25:16.247Z,38.93
2016-04-18T12:26:16.220Z,38.93
2016-04-18T12:27:16.191Z,39.2
2016-04-18T12:28:16.194Z,40.84
2016-04-18T12:29:16.166Z,41.39
2016-04-18T12:30:16.136Z,41.87
2016-04-18T12:31:16.124Z,40.53
2016-04-18T12:32:16.096Z,39.69
2016-04-18T12:33:16.082Z,41.01
2016-04-18T12:34:16.054Z,41.97
2016-04-18T12:35:16.041Z,41.49
2016-04-18T12:36:16.012Z,41.95
2016-04-18T12:37:15.999Z,42.04
2016-04-18T12:38:15.987Z,42.52
2016-04-18T12:39:15.957Z,42.6
2016-04-18T12:40:15.929Z,42.71
2016-04-18T12:41:15.916Z,43.09
2016-04-18T12:42:15.887Z,42.9
2016-04-18T12:43:15.875Z,43
2016-04-18T12:44:15.862Z,42.9
2016-04-18T12:45:15.833Z,42.61
2016-04-18T12:46:15.820Z,42.43
2016-04-18T12:47:15.792Z,42.81
2016-04-18T12:48:15.764Z,42.24
2016-04-18T12:49:15.766Z,42.24
2016-04-18T12:50:15.722Z,42.81
2016-04-18T12:51:15.709Z,43
2016-04-18T12:52:15.695Z,43.19
2016-04-18T12:53:15.667Z,42.9
2016-04-18T12:54:15.654Z,42.71
2016-04-18T12:55:15.625Z,43.09
2016-04-18T12:56:15.613Z,43.09
2016-04-18T12:57:15.583Z,43.76
2016-04-18T12:58:15.556Z,43.66
2016-04-18T12:59:15.558Z,43.48
2016-04-18T13:00:15.513Z,42.9
2016-04-18T13:01:15.502Z,43